sensor_id;sensor_type;location;lat;lon;timestamp;temperature;humidity
71155;DHT22;59375;53.216;5.728;2023-01-29T00:00:29;4.50;99.90
71155;DHT22;59375;53.216;5.728;2023-01-29T00:02:54;4.50;99.90
71155;DHT22;59375;53.216;5.728;2023-01-29T00:05:20;4.50;99.90
71155;DHT22;59375;53.216;5.728;2023-01-29T00:07:45;4.50;99.90
71155;DHT22;59375;53.216;5.728;2023-01-29T00:10:10;4.50;99.90
71155;DHT22;59375;53.216;5.728;2023-01-29T00:12:36;4.60;99.90
71155;DHT22;59375;53.216;5.728;2023-01-29T00:15:01;4.60;99.90
71155;DHT22;59375;53.216;5.728;2023-01-29T00:17:27;4.50;99.90
71155;DHT22;59375;53.216;5.728;2023-01-29T00:19:52;4.50;99.90
71155;DHT22;59375;53.216;5.728;2023-01-29T00:22:18;4.50;99.90
71155;DHT22;59375;53.216;5.728;2023-01-29T00:24:43;4.50;99.90
71155;DHT22;59375;53.216;5.728;2023-01-29T00:27:09;4.50;99.90
71155;DHT22;59375;53.216;5.728;2023-01-29T00:29:35;4.50;99.90
71155;DHT22;59375;53.216;5.728;2023-01-29T00:32:00;4.50;99.90
71155;DHT22;59375;53.216;5.728;2023-01-29T00:34:26;4.50;99.90
71155;DHT22;59375;53.216;5.728;2023-01-29T00:36:51;4.50;99.90
71155;DHT22;59375;53.216;5.728;2023-01-29T00:39:16;4.60;99.90
71155;DHT22;59375;53.216;5.728;2023-01-29T00:41:48;4.50;99.90
71155;DHT22;59375;53.216;5.728;2023-01-29T00:44:32;4.50;99.90
71155;DHT22;59375;53.216;5.728;2023-01-29T00:47:16;4.60;99.90
71155;DHT22;59375;53.216;5.728;2023-01-29T00:49:58;4.50;99.90
71155;DHT22;59375;53.216;5.728;2023-01-29T00:52:24;4.60;99.90
71155;DHT22;59375;53.216;5.728;2023-01-29T00:54:53;4.60;99.90
71155;DHT22;59375;53.216;5.728;2023-01-29T00:57:19;4.60;99.90
71155;DHT22;59375;53.216;5.728;2023-01-29T00:59:44;4.60;99.90
71155;DHT22;59375;53.216;5.728;2023-01-29T01:02:10;4.60;99.90
71155;DHT22;59375;53.216;5.728;2023-01-29T01:04:54;4.60;99.90
71155;DHT22;59375;53.216;5.728;2023-01-29T01:07:19;4.60;99.90
71155;DHT22;59375;53.216;5.728;2023-01-29T01:09:45;4.60;99.90
71155;DHT22;59375;53.216;5.728;2023-01-29T01:12:29;4.60;99.90
71155;DHT22;59375;53.216;5.728;2023-01-29T01:14:55;4.60;99.90
71155;DHT22;59375;53.216;5.728;2023-01-29T01:17:20;4.60;99.90
71155;DHT22;59375;53.216;5.728;2023-01-29T01:19:46;4.60;99.90
71155;DHT22;59375;53.216;5.728;2023-01-29T01:22:11;4.60;99.90
71155;DHT22;59375;53.216;5.728;2023-01-29T01:24:37;4.60;99.90
71155;DHT22;59375;53.216;5.728;2023-01-29T01:27:02;4.60;99.90
71155;DHT22;59375;53.216;5.728;2023-01-29T01:29:28;4.60;99.90
71155;DHT22;59375;53.216;5.728;2023-01-29T01:31:53;4.60;99.90
71155;DHT22;59375;53.216;5.728;2023-01-29T01:34:19;4.60;99.90
71155;DHT22;59375;53.216;5.728;2023-01-29T01:36:46;4.60;99.90
71155;DHT22;59375;53.216;5.728;2023-01-29T01:39:11;4.70;99.90
71155;DHT22;59375;53.216;5.728;2023-01-29T01:41:37;4.60;99.90
71155;DHT22;59375;53.216;5.728;2023-01-29T01:44:03;4.70;99.90
71155;DHT22;59375;53.216;5.728;2023-01-29T01:46:33;4.70;99.90
71155;DHT22;59375;53.216;5.728;2023-01-29T01:51:28;4.70;99.90
71155;DHT22;59375;53.216;5.728;2023-01-29T01:53:56;4.70;99.90
71155;DHT22;59375;53.216;5.728;2023-01-29T01:56:24;4.70;99.90
71155;DHT22;59375;53.216;5.728;2023-01-29T01:58:56;4.70;99.90
71155;DHT22;59375;53.216;5.728;2023-01-29T02:01:23;4.70;99.90
71155;DHT22;59375;53.216;5.728;2023-01-29T02:03:57;4.70;99.90
71155;DHT22;59375;53.216;5.728;2023-01-29T02:06:44;4.70;99.90
71155;DHT22;59375;53.216;5.728;2023-01-29T02:09:30;4.70;99.90
71155;DHT22;59375;53.216;5.728;2023-01-29T02:12:00;4.70;99.90
71155;DHT22;59375;53.216;5.728;2023-01-29T02:14:26;4.70;99.90
71155;DHT22;59375;53.216;5.728;2023-01-29T02:16:52;4.70;99.90
71155;DHT22;59375;53.216;5.728;2023-01-29T02:19:22;4.70;99.90
71155;DHT22;59375;53.216;5.728;2023-01-29T02:30:13;4.70;99.90
71155;DHT22;59375;53.216;5.728;2023-01-29T02:32:44;4.70;99.90
71155;DHT22;59375;53.216;5.728;2023-01-29T02:35:26;4.70;99.90
71155;DHT22;59375;53.216;5.728;2023-01-29T02:37:56;4.70;99.90
71155;DHT22;59375;53.216;5.728;2023-01-29T02:40:26;4.70;99.90
71155;DHT22;59375;53.216;5.728;2023-01-29T02:42:59;4.70;99.90
71155;DHT22;59375;53.216;5.728;2023-01-29T02:45:31;4.70;99.90
71155;DHT22;59375;53.216;5.728;2023-01-29T02:47:59;4.70;99.90
71155;DHT22;59375;53.216;5.728;2023-01-29T02:53:07;4.70;99.90
71155;DHT22;59375;53.216;5.728;2023-01-29T02:55:37;4.70;99.90
71155;DHT22;59375;53.216;5.728;2023-01-29T03:00:52;4.70;99.90
71155;DHT22;59375;53.216;5.728;2023-01-29T03:03:21;4.70;99.90
71155;DHT22;59375;53.216;5.728;2023-01-29T03:05:50;4.70;99.90
71155;DHT22;59375;53.216;5.728;2023-01-29T03:08:20;4.70;99.90
71155;DHT22;59375;53.216;5.728;2023-01-29T03:10:52;4.70;99.90
71155;DHT22;59375;53.216;5.728;2023-01-29T03:13:20;4.70;99.90
71155;DHT22;59375;53.216;5.728;2023-01-29T03:15:51;4.70;99.90
71155;DHT22;59375;53.216;5.728;2023-01-29T03:18:26;4.60;99.90
71155;DHT22;59375;53.216;5.728;2023-01-29T03:20:56;4.70;99.90
71155;DHT22;59375;53.216;5.728;2023-01-29T03:23:27;4.60;99.90
71155;DHT22;59375;53.216;5.728;2023-01-29T03:26:12;4.70;99.90
71155;DHT22;59375;53.216;5.728;2023-01-29T03:28:58;4.70;99.90
71155;DHT22;59375;53.216;5.728;2023-01-29T03:31:42;4.70;99.90
71155;DHT22;59375;53.216;5.728;2023-01-29T03:34:27;4.60;99.90
71155;DHT22;59375;53.216;5.728;2023-01-29T03:37:38;4.60;99.90
71155;DHT22;59375;53.216;5.728;2023-01-29T03:39:55;4.60;99.90
71155;DHT22;59375;53.216;5.728;2023-01-29T03:42:23;4.60;99.90
71155;DHT22;59375;53.216;5.728;2023-01-29T03:44:57;4.60;99.90
71155;DHT22;59375;53.216;5.728;2023-01-29T03:49:58;4.60;99.90
71155;DHT22;59375;53.216;5.728;2023-01-29T03:52:26;4.60;99.90
71155;DHT22;59375;53.216;5.728;2023-01-29T03:57:53;4.60;99.90
71155;DHT22;59375;53.216;5.728;2023-01-29T04:05:24;4.60;99.90
71155;DHT22;59375;53.216;5.728;2023-01-29T04:07:53;4.60;99.90
71155;DHT22;59375;53.216;5.728;2023-01-29T04:10:21;4.60;99.90
71155;DHT22;59375;53.216;5.728;2023-01-29T04:12:51;4.60;99.90
71155;DHT22;59375;53.216;5.728;2023-01-29T04:15:18;4.60;99.90
71155;DHT22;59375;53.216;5.728;2023-01-29T04:17:46;4.60;99.90
71155;DHT22;59375;53.216;5.728;2023-01-29T04:20:13;4.60;99.90
71155;DHT22;59375;53.216;5.728;2023-01-29T04:22:38;4.60;99.90
71155;DHT22;59375;53.216;5.728;2023-01-29T04:25:08;4.60;99.90
71155;DHT22;59375;53.216;5.728;2023-01-29T04:27:42;4.60;99.90
71155;DHT22;59375;53.216;5.728;2023-01-29T04:32:41;4.70;99.90
71155;DHT22;59375;53.216;5.728;2023-01-29T04:40:24;4.60;99.90
71155;DHT22;59375;53.216;5.728;2023-01-29T04:43:05;4.60;99.90
71155;DHT22;59375;53.216;5.728;2023-01-29T04:48:08;4.60;99.90
71155;DHT22;59375;53.216;5.728;2023-01-29T04:53:23;4.70;99.90
71155;DHT22;59375;53.216;5.728;2023-01-29T04:55:51;4.70;99.90
71155;DHT22;59375;53.216;5.728;2023-01-29T04:58:32;4.60;99.90
71155;DHT22;59375;53.216;5.728;2023-01-29T05:01:00;4.70;99.90
71155;DHT22;59375;53.216;5.728;2023-01-29T05:03:27;4.70;99.90
71155;DHT22;59375;53.216;5.728;2023-01-29T05:05:53;4.70;99.90
71155;DHT22;59375;53.216;5.728;2023-01-29T05:08:20;4.70;99.90
71155;DHT22;59375;53.216;5.728;2023-01-29T05:10:47;4.70;99.90
71155;DHT22;59375;53.216;5.728;2023-01-29T05:13:13;4.70;99.90
71155;DHT22;59375;53.216;5.728;2023-01-29T05:18:14;4.70;99.90
71155;DHT22;59375;53.216;5.728;2023-01-29T05:20:40;4.70;99.90
71155;DHT22;59375;53.216;5.728;2023-01-29T05:23:16;4.70;99.90
71155;DHT22;59375;53.216;5.728;2023-01-29T05:25:42;4.70;99.90
71155;DHT22;59375;53.216;5.728;2023-01-29T05:28:08;4.70;99.90
71155;DHT22;59375;53.216;5.728;2023-01-29T05:30:41;4.70;99.90
71155;DHT22;59375;53.216;5.728;2023-01-29T05:33:11;4.70;99.90
71155;DHT22;59375;53.216;5.728;2023-01-29T05:35:37;4.70;99.90
71155;DHT22;59375;53.216;5.728;2023-01-29T05:38:02;4.70;99.90
71155;DHT22;59375;53.216;5.728;2023-01-29T05:40:28;4.70;99.90
71155;DHT22;59375;53.216;5.728;2023-01-29T05:42:53;4.70;99.90
71155;DHT22;59375;53.216;5.728;2023-01-29T05:45:19;4.70;99.90
71155;DHT22;59375;53.216;5.728;2023-01-29T05:47:44;4.70;99.90
71155;DHT22;59375;53.216;5.728;2023-01-29T05:50:10;4.70;99.90
71155;DHT22;59375;53.216;5.728;2023-01-29T05:52:36;4.70;99.90
71155;DHT22;59375;53.216;5.728;2023-01-29T05:55:02;4.70;99.90
71155;DHT22;59375;53.216;5.728;2023-01-29T05:57:27;4.60;99.90
71155;DHT22;59375;53.216;5.728;2023-01-29T05:59:53;4.60;99.90
71155;DHT22;59375;53.216;5.728;2023-01-29T06:02:18;4.60;99.90
71155;DHT22;59375;53.216;5.728;2023-01-29T06:04:43;4.60;99.90
71155;DHT22;59375;53.216;5.728;2023-01-29T06:07:09;4.50;99.90
71155;DHT22;59375;53.216;5.728;2023-01-29T06:09:34;4.50;99.90
71155;DHT22;59375;53.216;5.728;2023-01-29T06:12:00;4.50;99.90
71155;DHT22;59375;53.216;5.728;2023-01-29T06:14:25;4.50;99.90
71155;DHT22;59375;53.216;5.728;2023-01-29T06:16:51;4.50;99.90
71155;DHT22;59375;53.216;5.728;2023-01-29T06:19:16;4.40;99.90
71155;DHT22;59375;53.216;5.728;2023-01-29T06:21:42;4.40;99.90
71155;DHT22;59375;53.216;5.728;2023-01-29T06:24:07;4.40;99.90
71155;DHT22;59375;53.216;5.728;2023-01-29T06:26:33;4.40;99.90
71155;DHT22;59375;53.216;5.728;2023-01-29T06:28:58;4.40;99.90
71155;DHT22;59375;53.216;5.728;2023-01-29T06:31:24;4.50;99.90
71155;DHT22;59375;53.216;5.728;2023-01-29T06:33:49;4.40;99.90
71155;DHT22;59375;53.216;5.728;2023-01-29T06:36:15;4.40;99.90
71155;DHT22;59375;53.216;5.728;2023-01-29T06:38:40;4.40;99.90
71155;DHT22;59375;53.216;5.728;2023-01-29T06:41:07;4.40;99.90
71155;DHT22;59375;53.216;5.728;2023-01-29T06:43:33;4.40;99.90
71155;DHT22;59375;53.216;5.728;2023-01-29T06:45:58;4.40;99.90
71155;DHT22;59375;53.216;5.728;2023-01-29T06:48:24;4.40;99.90
71155;DHT22;59375;53.216;5.728;2023-01-29T06:50:49;4.40;99.90
71155;DHT22;59375;53.216;5.728;2023-01-29T06:53:16;4.40;99.90
71155;DHT22;59375;53.216;5.728;2023-01-29T06:55:42;4.40;99.90
71155;DHT22;59375;53.216;5.728;2023-01-29T06:58:09;4.40;99.90
71155;DHT22;59375;53.216;5.728;2023-01-29T07:00:35;4.40;99.90
71155;DHT22;59375;53.216;5.728;2023-01-29T07:03:01;4.40;99.90
71155;DHT22;59375;53.216;5.728;2023-01-29T07:05:27;4.40;99.90
71155;DHT22;59375;53.216;5.728;2023-01-29T07:07:52;4.40;99.90
71155;DHT22;59375;53.216;5.728;2023-01-29T07:10:18;4.40;99.90
71155;DHT22;59375;53.216;5.728;2023-01-29T07:12:43;4.40;99.90
71155;DHT22;59375;53.216;5.728;2023-01-29T07:15:09;4.40;99.90
71155;DHT22;59375;53.216;5.728;2023-01-29T07:17:37;4.40;99.90
71155;DHT22;59375;53.216;5.728;2023-01-29T07:20:02;4.40;99.90
71155;DHT22;59375;53.216;5.728;2023-01-29T07:22:28;4.40;99.90
71155;DHT22;59375;53.216;5.728;2023-01-29T07:24:53;4.40;99.90
71155;DHT22;59375;53.216;5.728;2023-01-29T07:27:19;4.40;99.90
71155;DHT22;59375;53.216;5.728;2023-01-29T07:29:44;4.40;99.90
71155;DHT22;59375;53.216;5.728;2023-01-29T07:32:09;4.40;99.90
71155;DHT22;59375;53.216;5.728;2023-01-29T07:34:35;4.40;99.90
71155;DHT22;59375;53.216;5.728;2023-01-29T07:37:00;4.40;99.90
71155;DHT22;59375;53.216;5.728;2023-01-29T07:39:26;4.40;99.90
71155;DHT22;59375;53.216;5.728;2023-01-29T07:41:51;4.40;99.90
71155;DHT22;59375;53.216;5.728;2023-01-29T07:44:17;4.40;99.90
71155;DHT22;59375;53.216;5.728;2023-01-29T07:46:42;4.40;99.90
71155;DHT22;59375;53.216;5.728;2023-01-29T07:49:08;4.50;99.90
71155;DHT22;59375;53.216;5.728;2023-01-29T07:51:33;4.40;99.90
71155;DHT22;59375;53.216;5.728;2023-01-29T07:53:58;4.40;99.90
71155;DHT22;59375;53.216;5.728;2023-01-29T07:56:24;4.50;99.90
71155;DHT22;59375;53.216;5.728;2023-01-29T07:58:49;4.40;99.90
71155;DHT22;59375;53.216;5.728;2023-01-29T08:01:15;4.50;99.90
71155;DHT22;59375;53.216;5.728;2023-01-29T08:03:40;4.50;99.90
71155;DHT22;59375;53.216;5.728;2023-01-29T08:06:06;4.50;99.90
71155;DHT22;59375;53.216;5.728;2023-01-29T08:08:31;4.50;99.90
71155;DHT22;59375;53.216;5.728;2023-01-29T08:10:59;4.50;99.90
71155;DHT22;59375;53.216;5.728;2023-01-29T08:13:25;4.50;99.90
71155;DHT22;59375;53.216;5.728;2023-01-29T08:15:50;4.60;99.90
71155;DHT22;59375;53.216;5.728;2023-01-29T08:18:15;4.60;99.90
71155;DHT22;59375;53.216;5.728;2023-01-29T08:20:41;4.60;99.90
71155;DHT22;59375;53.216;5.728;2023-01-29T08:23:08;4.60;99.90
71155;DHT22;59375;53.216;5.728;2023-01-29T08:25:34;4.60;99.90
71155;DHT22;59375;53.216;5.728;2023-01-29T08:28:00;4.60;99.90
71155;DHT22;59375;53.216;5.728;2023-01-29T08:30:26;4.70;99.90
71155;DHT22;59375;53.216;5.728;2023-01-29T08:32:52;4.60;99.90
71155;DHT22;59375;53.216;5.728;2023-01-29T08:35:17;4.60;99.90
71155;DHT22;59375;53.216;5.728;2023-01-29T08:37:43;4.70;99.90
71155;DHT22;59375;53.216;5.728;2023-01-29T08:40:08;4.70;99.90
71155;DHT22;59375;53.216;5.728;2023-01-29T08:42:36;4.70;99.90
71155;DHT22;59375;53.216;5.728;2023-01-29T08:45:01;4.70;99.90
71155;DHT22;59375;53.216;5.728;2023-01-29T08:47:27;4.70;99.90
71155;DHT22;59375;53.216;5.728;2023-01-29T08:49:52;4.70;99.90
71155;DHT22;59375;53.216;5.728;2023-01-29T08:52:18;4.70;99.90
71155;DHT22;59375;53.216;5.728;2023-01-29T08:54:43;4.70;99.90
71155;DHT22;59375;53.216;5.728;2023-01-29T08:57:09;4.70;99.90
71155;DHT22;59375;53.216;5.728;2023-01-29T08:59:34;4.70;99.90
71155;DHT22;59375;53.216;5.728;2023-01-29T09:02:00;4.70;99.90
71155;DHT22;59375;53.216;5.728;2023-01-29T09:04:25;4.80;99.90
71155;DHT22;59375;53.216;5.728;2023-01-29T09:06:50;4.80;99.90
71155;DHT22;59375;53.216;5.728;2023-01-29T09:09:16;4.80;99.90
71155;DHT22;59375;53.216;5.728;2023-01-29T09:11:42;4.80;99.90
71155;DHT22;59375;53.216;5.728;2023-01-29T09:14:08;4.80;99.90
71155;DHT22;59375;53.216;5.728;2023-01-29T09:16:36;4.80;99.90
71155;DHT22;59375;53.216;5.728;2023-01-29T09:19:02;4.90;99.90
71155;DHT22;59375;53.216;5.728;2023-01-29T09:21:27;4.90;99.90
71155;DHT22;59375;53.216;5.728;2023-01-29T09:23:52;4.90;99.90
71155;DHT22;59375;53.216;5.728;2023-01-29T09:26:18;5.00;99.90
71155;DHT22;59375;53.216;5.728;2023-01-29T09:28:43;5.00;99.90
71155;DHT22;59375;53.216;5.728;2023-01-29T09:31:09;5.00;99.90
71155;DHT22;59375;53.216;5.728;2023-01-29T09:33:34;5.00;99.90
71155;DHT22;59375;53.216;5.728;2023-01-29T09:36:01;5.00;99.90
71155;DHT22;59375;53.216;5.728;2023-01-29T09:38:26;5.00;99.90
71155;DHT22;59375;53.216;5.728;2023-01-29T09:41:05;5.00;99.90
71155;DHT22;59375;53.216;5.728;2023-01-29T09:46:44;5.00;99.90
71155;DHT22;59375;53.216;5.728;2023-01-29T09:48:44;5.00;99.90
71155;DHT22;59375;53.216;5.728;2023-01-29T09:51:14;5.00;99.90
71155;DHT22;59375;53.216;5.728;2023-01-29T09:53:46;5.00;99.90
71155;DHT22;59375;53.216;5.728;2023-01-29T09:56:20;5.00;99.90
71155;DHT22;59375;53.216;5.728;2023-01-29T09:58:46;5.00;99.90
71155;DHT22;59375;53.216;5.728;2023-01-29T10:06:38;5.00;99.90
71155;DHT22;59375;53.216;5.728;2023-01-29T10:11:52;5.00;99.90
71155;DHT22;59375;53.216;5.728;2023-01-29T10:14:33;5.10;99.90
71155;DHT22;59375;53.216;5.728;2023-01-29T10:27:18;5.20;99.90
71155;DHT22;59375;53.216;5.728;2023-01-29T10:29:44;5.20;99.90
71155;DHT22;59375;53.216;5.728;2023-01-29T10:32:15;5.20;99.90
71155;DHT22;59375;53.216;5.728;2023-01-29T10:34:46;5.20;99.90
71155;DHT22;59375;53.216;5.728;2023-01-29T10:37:16;5.20;99.90
71155;DHT22;59375;53.216;5.728;2023-01-29T10:39:42;5.30;99.90
71155;DHT22;59375;53.216;5.728;2023-01-29T10:47:31;5.40;99.90
71155;DHT22;59375;53.216;5.728;2023-01-29T11:00:51;5.40;99.90
71155;DHT22;59375;53.216;5.728;2023-01-29T11:03:18;5.40;99.90
71155;DHT22;59375;53.216;5.728;2023-01-29T11:05:57;5.50;99.90
71155;DHT22;59375;53.216;5.728;2023-01-29T11:08:25;5.50;99.90
71155;DHT22;59375;53.216;5.728;2023-01-29T11:10:58;5.50;99.90
71155;DHT22;59375;53.216;5.728;2023-01-29T11:13:28;5.50;99.90
71155;DHT22;59375;53.216;5.728;2023-01-29T11:15:53;5.60;99.90
71155;DHT22;59375;53.216;5.728;2023-01-29T11:18:19;5.60;99.90
71155;DHT22;59375;53.216;5.728;2023-01-29T11:20:45;5.60;99.90
71155;DHT22;59375;53.216;5.728;2023-01-29T11:23:27;5.60;99.90
71155;DHT22;59375;53.216;5.728;2023-01-29T11:25:54;5.60;99.90
71155;DHT22;59375;53.216;5.728;2023-01-29T11:28:36;5.60;99.90
71155;DHT22;59375;53.216;5.728;2023-01-29T11:31:02;5.60;99.90
71155;DHT22;59375;53.216;5.728;2023-01-29T11:33:27;5.70;99.90
71155;DHT22;59375;53.216;5.728;2023-01-29T11:35:53;5.70;99.90
71155;DHT22;59375;53.216;5.728;2023-01-29T11:38:21;5.70;99.90
71155;DHT22;59375;53.216;5.728;2023-01-29T11:40:47;5.70;99.90
71155;DHT22;59375;53.216;5.728;2023-01-29T11:43:18;5.70;99.90
71155;DHT22;59375;53.216;5.728;2023-01-29T11:45:43;5.70;99.90
71155;DHT22;59375;53.216;5.728;2023-01-29T11:48:17;5.80;99.90
71155;DHT22;59375;53.216;5.728;2023-01-29T11:50:43;5.80;99.90
71155;DHT22;59375;53.216;5.728;2023-01-29T11:53:34;5.80;99.90
71155;DHT22;59375;53.216;5.728;2023-01-29T11:56:02;5.80;99.90
71155;DHT22;59375;53.216;5.728;2023-01-29T11:58:28;5.80;99.90
71155;DHT22;59375;53.216;5.728;2023-01-29T12:00:56;5.80;99.90
71155;DHT22;59375;53.216;5.728;2023-01-29T12:03:35;5.80;99.90
71155;DHT22;59375;53.216;5.728;2023-01-29T12:06:02;5.80;99.90
71155;DHT22;59375;53.216;5.728;2023-01-29T12:08:32;5.80;99.90
71155;DHT22;59375;53.216;5.728;2023-01-29T12:11:14;5.90;99.90
71155;DHT22;59375;53.216;5.728;2023-01-29T12:13:50;5.90;99.90
71155;DHT22;59375;53.216;5.728;2023-01-29T12:16:25;5.90;99.90
71155;DHT22;59375;53.216;5.728;2023-01-29T12:18:57;5.90;99.90
71155;DHT22;59375;53.216;5.728;2023-01-29T12:26:50;6.00;99.90
71155;DHT22;59375;53.216;5.728;2023-01-29T12:29:22;6.00;99.90
71155;DHT22;59375;53.216;5.728;2023-01-29T12:34:44;6.10;99.90
71155;DHT22;59375;53.216;5.728;2023-01-29T12:39:55;6.10;99.90
71155;DHT22;59375;53.216;5.728;2023-01-29T12:42:21;6.10;99.90
71155;DHT22;59375;53.216;5.728;2023-01-29T12:44:49;6.10;99.90
71155;DHT22;59375;53.216;5.728;2023-01-29T12:47:26;6.10;99.90
71155;DHT22;59375;53.216;5.728;2023-01-29T12:49:54;6.10;99.90
71155;DHT22;59375;53.216;5.728;2023-01-29T12:52:32;6.10;99.90
71155;DHT22;59375;53.216;5.728;2023-01-29T12:55:02;6.20;99.90
71155;DHT22;59375;53.216;5.728;2023-01-29T12:57:37;6.20;99.90
71155;DHT22;59375;53.216;5.728;2023-01-29T13:00:09;6.30;99.90
71155;DHT22;59375;53.216;5.728;2023-01-29T13:02:38;6.40;99.90
71155;DHT22;59375;53.216;5.728;2023-01-29T13:07:53;6.50;99.90
71155;DHT22;59375;53.216;5.728;2023-01-29T13:10:26;6.60;99.90
71155;DHT22;59375;53.216;5.728;2023-01-29T13:13:01;6.70;99.90
71155;DHT22;59375;53.216;5.728;2023-01-29T13:15:38;6.70;99.90
71155;DHT22;59375;53.216;5.728;2023-01-29T13:18:17;6.70;99.90
71155;DHT22;59375;53.216;5.728;2023-01-29T13:20:45;6.80;99.90
71155;DHT22;59375;53.216;5.728;2023-01-29T13:23:14;6.70;99.90
71155;DHT22;59375;53.216;5.728;2023-01-29T13:25:41;6.70;99.90
71155;DHT22;59375;53.216;5.728;2023-01-29T13:28:15;6.70;99.90
71155;DHT22;59375;53.216;5.728;2023-01-29T13:30:41;6.60;99.90
71155;DHT22;59375;53.216;5.728;2023-01-29T13:33:06;6.60;99.90
71155;DHT22;59375;53.216;5.728;2023-01-29T13:35:35;6.50;99.90
71155;DHT22;59375;53.216;5.728;2023-01-29T13:38:02;6.50;99.90
71155;DHT22;59375;53.216;5.728;2023-01-29T13:40:29;6.50;99.90
71155;DHT22;59375;53.216;5.728;2023-01-29T13:42:55;6.50;99.90
71155;DHT22;59375;53.216;5.728;2023-01-29T13:45:22;6.40;99.90
71155;DHT22;59375;53.216;5.728;2023-01-29T13:47:49;6.50;99.90
71155;DHT22;59375;53.216;5.728;2023-01-29T13:52:59;6.40;99.90
71155;DHT22;59375;53.216;5.728;2023-01-29T13:55:30;6.30;99.90
71155;DHT22;59375;53.216;5.728;2023-01-29T13:57:57;6.40;99.90
71155;DHT22;59375;53.216;5.728;2023-01-29T14:08:01;6.30;99.90
71155;DHT22;59375;53.216;5.728;2023-01-29T14:10:27;6.30;99.90
71155;DHT22;59375;53.216;5.728;2023-01-29T14:13:38;6.30;99.90
71155;DHT22;59375;53.216;5.728;2023-01-29T14:15:39;6.30;99.90
71155;DHT22;59375;53.216;5.728;2023-01-29T14:20:40;6.30;99.90
71155;DHT22;59375;53.216;5.728;2023-01-29T14:23:06;6.30;99.90
71155;DHT22;59375;53.216;5.728;2023-01-29T14:25:33;6.20;99.90
71155;DHT22;59375;53.216;5.728;2023-01-29T14:27:59;6.20;99.90
71155;DHT22;59375;53.216;5.728;2023-01-29T14:30:27;6.20;99.90
71155;DHT22;59375;53.216;5.728;2023-01-29T14:32:54;6.20;99.90
71155;DHT22;59375;53.216;5.728;2023-01-29T14:37:46;6.20;99.90
71155;DHT22;59375;53.216;5.728;2023-01-29T14:42:46;6.20;99.90
71155;DHT22;59375;53.216;5.728;2023-01-29T14:55:57;6.20;99.90
71155;DHT22;59375;53.216;5.728;2023-01-29T14:58:29;6.20;99.90
71155;DHT22;59375;53.216;5.728;2023-01-29T15:00:57;6.20;99.90
71155;DHT22;59375;53.216;5.728;2023-01-29T15:05:55;6.20;99.90
71155;DHT22;59375;53.216;5.728;2023-01-29T15:10:57;6.20;99.90
71155;DHT22;59375;53.216;5.728;2023-01-29T15:16:10;6.20;99.90
71155;DHT22;59375;53.216;5.728;2023-01-29T15:18:39;6.10;99.90
71155;DHT22;59375;53.216;5.728;2023-01-29T15:21:11;6.20;99.90
71155;DHT22;59375;53.216;5.728;2023-01-29T15:23:37;6.10;99.90
71155;DHT22;59375;53.216;5.728;2023-01-29T15:26:35;6.10;99.90
71155;DHT22;59375;53.216;5.728;2023-01-29T15:28:55;6.10;99.90
71155;DHT22;59375;53.216;5.728;2023-01-29T15:31:21;6.10;99.90
71155;DHT22;59375;53.216;5.728;2023-01-29T15:33:47;6.10;99.90
71155;DHT22;59375;53.216;5.728;2023-01-29T15:36:19;6.10;99.90
71155;DHT22;59375;53.216;5.728;2023-01-29T15:38:45;6.10;99.90
71155;DHT22;59375;53.216;5.728;2023-01-29T15:43:42;6.10;99.90
71155;DHT22;59375;53.216;5.728;2023-01-29T15:46:28;6.10;99.90
71155;DHT22;59375;53.216;5.728;2023-01-29T15:48:56;6.10;99.90
71155;DHT22;59375;53.216;5.728;2023-01-29T15:51:24;6.10;99.90
71155;DHT22;59375;53.216;5.728;2023-01-29T15:53:54;6.10;99.90
71155;DHT22;59375;53.216;5.728;2023-01-29T15:56:22;6.10;99.90
71155;DHT22;59375;53.216;5.728;2023-01-29T15:58:48;6.10;99.90
71155;DHT22;59375;53.216;5.728;2023-01-29T16:01:15;6.10;99.90
71155;DHT22;59375;53.216;5.728;2023-01-29T16:03:40;6.10;99.90
71155;DHT22;59375;53.216;5.728;2023-01-29T16:06:06;6.00;99.90
71155;DHT22;59375;53.216;5.728;2023-01-29T16:08:32;6.10;99.90
71155;DHT22;59375;53.216;5.728;2023-01-29T16:11:00;6.00;99.90
71155;DHT22;59375;53.216;5.728;2023-01-29T16:13:27;6.00;99.90
71155;DHT22;59375;53.216;5.728;2023-01-29T16:18:20;6.00;99.90
71155;DHT22;59375;53.216;5.728;2023-01-29T16:20:51;6.00;99.90
71155;DHT22;59375;53.216;5.728;2023-01-29T16:23:21;6.00;99.90
71155;DHT22;59375;53.216;5.728;2023-01-29T16:25:48;5.90;99.90
71155;DHT22;59375;53.216;5.728;2023-01-29T16:28:15;5.90;99.90
71155;DHT22;59375;53.216;5.728;2023-01-29T16:30:40;5.90;99.90
71155;DHT22;59375;53.216;5.728;2023-01-29T16:33:06;5.90;99.90
71155;DHT22;59375;53.216;5.728;2023-01-29T16:35:35;5.90;99.90
71155;DHT22;59375;53.216;5.728;2023-01-29T16:38:05;5.90;99.90
71155;DHT22;59375;53.216;5.728;2023-01-29T16:40:34;5.90;99.90
71155;DHT22;59375;53.216;5.728;2023-01-29T16:48:32;5.90;99.90
71155;DHT22;59375;53.216;5.728;2023-01-29T16:51:05;5.90;99.90
71155;DHT22;59375;53.216;5.728;2023-01-29T16:53:36;6.00;99.90
71155;DHT22;59375;53.216;5.728;2023-01-29T16:56:03;6.00;99.90
71155;DHT22;59375;53.216;5.728;2023-01-29T16:58:29;5.90;99.90
71155;DHT22;59375;53.216;5.728;2023-01-29T17:00:57;5.90;99.90
71155;DHT22;59375;53.216;5.728;2023-01-29T17:03:24;5.90;99.90
71155;DHT22;59375;53.216;5.728;2023-01-29T17:05:50;5.90;99.90
71155;DHT22;59375;53.216;5.728;2023-01-29T17:08:38;5.90;99.90
71155;DHT22;59375;53.216;5.728;2023-01-29T17:11:02;5.90;99.90
71155;DHT22;59375;53.216;5.728;2023-01-29T17:13:38;5.90;99.90
71155;DHT22;59375;53.216;5.728;2023-01-29T17:16:22;5.80;99.90
71155;DHT22;59375;53.216;5.728;2023-01-29T17:18:49;5.90;99.90
71155;DHT22;59375;53.216;5.728;2023-01-29T17:21:15;5.80;99.90
71155;DHT22;59375;53.216;5.728;2023-01-29T17:23:40;5.80;99.90
71155;DHT22;59375;53.216;5.728;2023-01-29T17:26:06;5.70;99.90
71155;DHT22;59375;53.216;5.728;2023-01-29T17:28:33;5.70;99.90
71155;DHT22;59375;53.216;5.728;2023-01-29T17:30:58;5.70;99.90
71155;DHT22;59375;53.216;5.728;2023-01-29T17:33:24;5.60;99.90
71155;DHT22;59375;53.216;5.728;2023-01-29T17:35:50;5.60;99.90
71155;DHT22;59375;53.216;5.728;2023-01-29T17:38:16;5.60;99.90
71155;DHT22;59375;53.216;5.728;2023-01-29T17:43:07;5.50;99.90
71155;DHT22;59375;53.216;5.728;2023-01-29T17:45:36;5.50;99.90
71155;DHT22;59375;53.216;5.728;2023-01-29T17:48:02;5.40;99.90
71155;DHT22;59375;53.216;5.728;2023-01-29T17:50:28;5.40;99.90
71155;DHT22;59375;53.216;5.728;2023-01-29T17:52:54;5.40;99.90
71155;DHT22;59375;53.216;5.728;2023-01-29T17:55:20;5.30;99.90
71155;DHT22;59375;53.216;5.728;2023-01-29T17:57:46;5.30;99.90
71155;DHT22;59375;53.216;5.728;2023-01-29T18:00:18;5.30;99.90
71155;DHT22;59375;53.216;5.728;2023-01-29T18:02:44;5.20;99.90
71155;DHT22;59375;53.216;5.728;2023-01-29T18:05:10;5.20;99.90
71155;DHT22;59375;53.216;5.728;2023-01-29T18:07:36;5.20;99.90
71155;DHT22;59375;53.216;5.728;2023-01-29T18:10:02;5.20;99.90
71155;DHT22;59375;53.216;5.728;2023-01-29T18:12:27;5.20;99.90
71155;DHT22;59375;53.216;5.728;2023-01-29T18:14:53;5.20;99.90